createdAt,value
2022-12-28T00:02:43.648Z,100789.49
2022-12-28T00:06:47.066Z,100793.98
2022-12-28T00:11:08.211Z,100800.63
2022-12-28T00:15:10.958Z,100810.16
2022-12-28T00:19:15.939Z,100813.36
2022-12-28T00:23:17.829Z,100812.48
2022-12-28T00:27:19.732Z,100807.85
2022-12-28T00:31:22.095Z,100809.05
2022-12-28T00:35:23.989Z,100812.09
2022-12-28T00:39:26.053Z,100818.05
2022-12-28T00:43:28.214Z,100812.42
2022-12-28T00:47:30.134Z,100817.23
2022-12-28T00:51:31.997Z,100821.79
2022-12-28T00:55:34.528Z,100827.02
2022-12-28T00:59:36.422Z,100831.39
2022-12-28T01:03:38.434Z,100834.06
2022-12-28T01:07:40.311Z,100829.10
2022-12-28T01:11:42.155Z,100829.83
2022-12-28T01:15:44.022Z,100826.05
2022-12-28T01:19:51.991Z,100824.75
2022-12-28T01:23:58.949Z,100819.47
2022-12-28T01:28:00.827Z,100818.61
2022-12-28T01:32:02.853Z,100817.00
2022-12-28T01:36:07.142Z,100818.15
2022-12-28T01:40:13.429Z,100815.14
2022-12-28T01:44:15.499Z,100807.64
2022-12-28T01:48:24.537Z,100809.52
2022-12-28T01:52:41.323Z,100805.83
2022-12-28T01:56:43.994Z,100802.11
2022-12-28T02:00:46.057Z,100805.50
2022-12-28T02:04:48.888Z,100806.39
2022-12-28T02:09:13.849Z,100807.85
2022-12-28T02:13:17.599Z,100807.48
2022-12-28T02:17:19.577Z,100807.78
2022-12-28T02:21:31.433Z,100810.46
2022-12-28T02:25:33.773Z,100810.64
2022-12-28T02:29:45.167Z,100805.41
2022-12-28T02:34:15.000Z,100804.92
2022-12-28T02:38:37.333Z,100803.16
2022-12-28T02:42:40.644Z,100800.95
2022-12-28T02:47:02.776Z,100801.74
2022-12-28T02:51:12.375Z,100796.63
2022-12-28T02:55:51.851Z,100793.28
2022-12-28T02:59:54.242Z,100793.70
2022-12-28T03:04:07.143Z,100789.08
2022-12-28T03:08:19.672Z,100789.57
2022-12-28T03:12:29.112Z,100790.08
2022-12-28T03:16:57.922Z,100792.31
2022-12-28T03:21:25.050Z,100789.16
2022-12-28T03:25:52.610Z,100794.71
2022-12-28T03:30:36.145Z,100786.13
2022-12-28T03:34:38.807Z,100777.80
2022-12-28T03:38:48.083Z,100771.04
2022-12-28T03:43:13.211Z,100770.91
2022-12-28T03:47:17.192Z,100771.39
2022-12-28T03:51:22.450Z,100772.31
2022-12-28T03:55:25.280Z,100777.48
2022-12-28T03:59:27.615Z,100774.61
2022-12-28T04:03:30.484Z,100772.69
2022-12-28T04:07:32.390Z,100769.69
2022-12-28T04:11:34.524Z,100761.21
2022-12-28T04:15:36.755Z,100766.18
2022-12-28T04:19:39.179Z,100758.88
2022-12-28T04:23:42.244Z,100758.02
2022-12-28T04:27:49.982Z,100756.67
2022-12-28T04:32:10.429Z,100748.36
2022-12-28T04:36:15.903Z,100743.98
2022-12-28T04:40:18.739Z,100748.11
2022-12-28T04:44:20.690Z,100754.24
2022-12-28T04:48:22.527Z,100754.71
2022-12-28T04:52:24.465Z,100754.59
2022-12-28T04:56:26.731Z,100756.01
2022-12-28T05:00:28.767Z,100744.52
2022-12-28T05:04:30.682Z,100744.22
2022-12-28T05:08:34.575Z,100739.98
2022-12-28T05:12:36.473Z,100744.52
2022-12-28T05:16:38.390Z,100746.90
2022-12-28T05:20:40.664Z,100747.81
2022-12-28T05:24:42.504Z,100749.92
2022-12-28T05:28:44.826Z,100752.31
2022-12-28T05:32:46.836Z,100745.25
2022-12-28T05:36:48.849Z,100746.71
2022-12-28T05:40:50.850Z,100748.77
2022-12-28T05:44:52.697Z,100744.91
2022-12-28T05:48:55.137Z,100743.45
2022-12-28T05:52:58.059Z,100749.51
2022-12-28T05:57:00.051Z,100746.71
2022-12-28T06:01:09.166Z,100744.00
2022-12-28T06:05:11.085Z,100739.30
2022-12-28T06:09:13.633Z,100729.73
2022-12-28T06:13:15.477Z,100733.09
2022-12-28T06:17:17.337Z,100735.61
2022-12-28T06:21:39.246Z,100727.55
2022-12-28T06:25:41.237Z,100726.30
2022-12-28T06:29:43.067Z,100724.34
2022-12-28T06:33:46.289Z,100724.73
2022-12-28T06:37:48.970Z,100727.17
2022-12-28T06:41:51.001Z,100727.27
2022-12-28T06:45:56.903Z,100732.60
2022-12-28T06:49:59.155Z,100729.47
2022-12-28T06:54:01.837Z,100726.15
2022-12-28T06:58:03.722Z,100726.70
2022-12-28T07:02:06.292Z,100725.67
2022-12-28T07:06:09.354Z,100726.39
2022-12-28T07:10:11.188Z,100727.05
2022-12-28T07:14:13.448Z,100718.70
2022-12-28T07:18:15.396Z,100709.75
2022-12-28T07:22:17.329Z,100708.89
2022-12-28T07:26:21.686Z,100702.68
2022-12-28T07:30:23.585Z,100690.11
2022-12-28T07:34:25.576Z,100690.41
2022-12-28T07:38:27.533Z,100690.70
2022-12-28T07:42:31.320Z,100678.75
2022-12-28T07:46:35.846Z,100675.89
2022-12-28T07:50:38.264Z,100673.34
2022-12-28T07:54:40.287Z,100673.05
2022-12-28T08:02:48.164Z,100670.25
2022-12-28T08:06:50.061Z,100669.45
2022-12-28T08:10:51.917Z,100669.09
2022-12-28T08:14:53.759Z,100672.92
2022-12-28T08:18:55.710Z,100675.69
2022-12-28T08:22:57.680Z,100677.33
2022-12-28T08:26:59.613Z,100679.05
2022-12-28T08:31:06.816Z,100683.40
2022-12-28T08:35:08.987Z,100680.53
2022-12-28T08:39:10.814Z,100681.92
2022-12-28T08:43:12.747Z,100683.08
2022-12-28T08:47:14.663Z,100681.36
2022-12-28T08:51:18.272Z,100683.20
2022-12-28T08:55:20.434Z,100684.83
2022-12-28T08:59:22.592Z,100684.80
2022-12-28T09:03:24.530Z,100685.45
2022-12-28T09:07:26.396Z,100672.48
2022-12-28T09:11:28.456Z,100669.71
2022-12-28T09:15:30.311Z,100667.31
2022-12-28T09:19:32.203Z,100663.49
2022-12-28T09:23:34.609Z,100663.17
2022-12-28T09:27:36.569Z,100663.46
2022-12-28T09:31:40.150Z,100653.95
2022-12-28T09:35:42.262Z,100650.84
2022-12-28T09:39:44.145Z,100647.02
2022-12-28T09:43:46.389Z,100646.89
2022-12-28T09:47:54.671Z,100644.08
2022-12-28T09:52:22.462Z,100642.50
2022-12-28T09:56:33.749Z,100642.69
2022-12-28T10:00:43.361Z,100630.36
2022-12-28T10:04:49.500Z,100623.77
2022-12-28T10:08:54.991Z,100608.52
2022-12-28T10:13:02.593Z,100605.94
2022-12-28T10:17:06.987Z,100601.89
2022-12-28T10:21:09.962Z,100600.23
2022-12-28T10:25:26.348Z,100590.70
2022-12-28T10:29:32.621Z,100584.91
2022-12-28T10:33:38.933Z,100579.92
2022-12-28T10:37:44.326Z,100568.56
2022-12-28T10:41:47.756Z,100564.45
2022-12-28T10:45:51.217Z,100564.39
2022-12-28T10:50:35.230Z,100567.48
2022-12-28T10:54:27.845Z,100555.98
2022-12-28T10:58:34.387Z,100541.84
2022-12-28T11:02:36.710Z,100527.86
2022-12-28T11:07:02.185Z,100521.21
2022-12-28T11:11:04.238Z,100522.13
2022-12-28T11:15:08.332Z,100517.52
2022-12-28T11:19:12.357Z,100504.04
2022-12-28T11:23:34.304Z,100505.45
2022-12-28T11:27:36.423Z,100494.92
2022-12-28T11:31:49.045Z,100482.80
2022-12-28T11:35:59.407Z,100476.24
2022-12-28T11:40:01.793Z,100466.90
2022-12-28T11:44:04.726Z,100469.96
2022-12-28T11:48:38.034Z,100464.86
2022-12-28T11:52:49.251Z,100458.98
2022-12-28T11:56:51.120Z,100451.46
2022-12-28T12:00:53.080Z,100436.65
2022-12-28T12:04:55.055Z,100421.27
2022-12-28T12:08:56.960Z,100418.13
2022-12-28T12:13:01.483Z,100410.66
2022-12-28T12:17:11.858Z,100396.55
2022-12-28T12:21:30.777Z,100395.25
2022-12-28T12:25:46.051Z,100378.15
2022-12-28T12:29:59.233Z,100377.14
2022-12-28T12:34:19.581Z,100373.30
2022-12-28T12:39:03.704Z,100363.63
2022-12-28T12:43:17.837Z,100354.04
2022-12-28T12:47:46.541Z,100355.84
2022-12-28T12:52:27.513Z,100352.71
2022-12-28T12:56:52.697Z,100349.55
2022-12-28T13:01:06.798Z,100346.50
2022-12-28T13:05:19.013Z,100342.99
2022-12-28T13:09:24.634Z,100336.55
2022-12-28T13:13:35.875Z,100331.34
2022-12-28T13:17:37.847Z,100329.52
2022-12-28T13:21:45.694Z,100322.17
2022-12-28T13:25:50.740Z,100316.58
2022-12-28T13:29:54.360Z,100317.23
2022-12-28T13:34:03.606Z,100310.73
2022-12-28T13:38:08.737Z,100304.88
2022-12-28T13:42:29.603Z,100299.17
2022-12-28T13:46:31.734Z,100298.20
2022-12-28T13:50:38.671Z,100296.84
2022-12-28T13:54:46.521Z,100294.14
2022-12-28T13:58:52.429Z,100286.90
2022-12-28T14:02:56.451Z,100278.94
2022-12-28T14:06:59.197Z,100271.52
2022-12-28T14:11:02.402Z,100267.09
2022-12-28T14:15:06.284Z,100263.64
2022-12-28T14:19:09.400Z,100248.23
2022-12-28T14:23:29.298Z,100234.77
2022-12-28T14:27:36.631Z,100225.03
2022-12-28T14:31:38.983Z,100224.13
2022-12-28T14:35:54.632Z,100219.58
2022-12-28T14:40:03.744Z,100214.00
2022-12-28T14:44:12.664Z,100214.56
2022-12-28T14:48:21.196Z,100216.34
2022-12-28T14:52:41.170Z,100216.23
2022-12-28T14:56:47.602Z,100218.77
2022-12-28T15:01:05.503Z,100220.59
2022-12-28T15:05:37.573Z,100224.52
2022-12-28T15:09:39.467Z,100216.15
2022-12-28T15:13:42.745Z,100210.52
2022-12-28T15:17:46.586Z,100209.17
2022-12-28T15:21:48.436Z,100208.08
2022-12-28T15:25:50.800Z,100206.23
2022-12-28T15:30:09.939Z,100202.52
2022-12-28T15:34:14.533Z,100195.84
2022-12-28T15:38:16.469Z,100195.20
2022-12-28T15:42:18.450Z,100198.05
2022-12-28T15:46:20.678Z,100201.08
2022-12-28T15:50:22.548Z,100198.77
2022-12-28T15:54:24.501Z,100195.65
2022-12-28T15:58:27.222Z,100197.61
2022-12-28T16:02:29.222Z,100192.82
2022-12-28T16:06:34.242Z,100191.54
2022-12-28T16:10:39.557Z,100186.92
2022-12-28T16:14:41.559Z,100185.84
2022-12-28T16:18:43.523Z,100190.42
2022-12-28T16:22:45.871Z,100192.45
2022-12-28T16:26:47.796Z,100180.45
2022-12-28T16:30:49.883Z,100171.28
2022-12-28T16:34:54.528Z,100173.08
2022-12-28T16:38:56.825Z,100170.70
2022-12-28T16:42:58.673Z,100164.13
2022-12-28T16:47:00.610Z,100166.78
2022-12-28T16:51:03.130Z,100170.33
2022-12-28T16:55:05.241Z,100164.70
2022-12-28T16:59:07.201Z,100160.70
2022-12-28T17:03:09.075Z,100157.84
2022-12-28T17:07:10.983Z,100158.48
2022-12-28T17:11:13.298Z,100145.92
2022-12-28T17:15:15.390Z,100140.27
2022-12-28T17:19:17.284Z,100135.11
2022-12-28T17:23:19.193Z,100135.79
2022-12-28T17:27:21.047Z,100129.05
2022-12-28T17:31:23.129Z,100123.23
2022-12-28T17:35:25.546Z,100121.69
2022-12-28T17:39:27.529Z,100120.14
2022-12-28T17:43:30.671Z,100114.93
2022-12-28T17:47:32.538Z,100115.58
2022-12-28T17:51:34.552Z,100105.55
2022-12-28T17:55:37.022Z,100106.33
2022-12-28T17:59:39.057Z,100111.95
2022-12-28T18:03:41.177Z,100118.23
2022-12-28T18:07:43.198Z,100128.52
2022-12-28T18:11:45.138Z,100127.84
2022-12-28T18:15:47.280Z,100126.32
2022-12-28T18:19:53.035Z,100118.36
2022-12-28T18:23:55.007Z,100116.51
2022-12-28T18:27:57.085Z,100117.73
2022-12-28T18:31:59.277Z,100119.65
2022-12-28T18:36:05.709Z,100117.55
2022-12-28T18:40:09.151Z,100121.71
2022-12-28T18:44:11.097Z,100119.77
2022-12-28T18:48:14.403Z,100120.30
2022-12-28T18:52:18.046Z,100118.55
2022-12-28T18:56:21.082Z,100113.30
2022-12-28T19:00:24.547Z,100103.30
2022-12-28T19:04:28.883Z,100099.14
2022-12-28T19:08:33.047Z,100098.39
2022-12-28T19:12:34.973Z,100096.52
2022-12-28T19:16:36.925Z,100092.92
2022-12-28T19:20:38.879Z,100094.36
2022-12-28T19:24:40.783Z,100094.35
2022-12-28T19:28:44.865Z,100100.33
2022-12-28T19:32:46.702Z,100096.35
2022-12-28T19:36:48.739Z,100091.71
2022-12-28T19:40:50.606Z,100089.17
2022-12-28T19:44:52.514Z,100087.67
2022-12-28T19:48:54.379Z,100089.92
2022-12-28T19:52:56.245Z,100091.40
2022-12-28T19:56:58.188Z,100089.78
2022-12-28T20:01:09.438Z,100084.23
2022-12-28T20:05:11.433Z,100076.04
2022-12-28T20:09:14.389Z,100071.84
2022-12-28T20:13:16.707Z,100066.31
2022-12-28T20:17:19.926Z,100062.98
2022-12-28T20:21:23.899Z,100057.63
2022-12-28T20:25:25.828Z,100058.16
2022-12-28T20:29:27.891Z,100054.06
2022-12-28T20:33:31.598Z,100055.05
2022-12-28T20:37:33.522Z,100056.23
2022-12-28T20:41:56.038Z,100055.41
2022-12-28T20:45:58.406Z,100051.60
2022-12-28T20:50:00.288Z,100054.04
2022-12-28T20:54:02.384Z,100058.14
2022-12-28T20:58:04.467Z,100063.27
2022-12-28T21:02:08.539Z,100060.13
2022-12-28T21:06:11.365Z,100065.69
2022-12-28T21:10:13.673Z,100071.70
2022-12-28T21:14:15.567Z,100074.55
2022-12-28T21:18:18.632Z,100067.59
2022-12-28T21:22:20.498Z,100061.44
2022-12-28T21:26:22.790Z,100066.16
2022-12-28T21:30:25.166Z,100062.14
2022-12-28T21:34:28.960Z,100061.22
2022-12-28T21:38:32.331Z,100061.08
2022-12-28T21:42:35.435Z,100054.27
2022-12-28T21:46:37.922Z,100048.88
2022-12-28T21:50:39.842Z,100043.88
2022-12-28T21:54:41.757Z,100037.30
2022-12-28T21:58:46.952Z,100034.05
2022-12-28T22:03:07.669Z,100030.58
2022-12-28T22:07:12.434Z,100027.67
2022-12-28T22:11:32.917Z,100023.23
2022-12-28T22:15:53.138Z,100021.83
2022-12-28T22:19:54.974Z,100016.09
2022-12-28T22:23:56.973Z,100016.06
2022-12-28T22:27:59.649Z,100015.38
2022-12-28T22:32:01.589Z,100012.11
2022-12-28T22:36:16.354Z,100011.05
2022-12-28T22:40:19.121Z,100006.35
2022-12-28T22:44:21.009Z,100009.33
2022-12-28T22:48:23.153Z,100011.55
2022-12-28T22:52:25.032Z,100010.09
2022-12-28T22:56:26.950Z,100008.83
2022-12-28T23:00:28.955Z,100008.02
2022-12-28T23:04:31.132Z,100008.85
2022-12-28T23:08:33.715Z,100009.85
2022-12-28T23:12:35.550Z,100010.30
2022-12-28T23:16:37.445Z,100004.36
2022-12-28T23:20:58.231Z,99999.02
2022-12-28T23:25:18.769Z,99993.60
2022-12-28T23:29:23.257Z,99994.80
2022-12-28T23:33:29.373Z,99995.64
2022-12-28T23:37:31.691Z,99992.79
2022-12-28T23:41:48.772Z,99990.27
2022-12-28T23:45:50.837Z,99991.63
2022-12-28T23:49:52.846Z,99990.03
2022-12-28T23:53:54.735Z,99989.59
2022-12-28T23:57:56.593Z,99988.77
